createdAt,value
2023-09-07T00:00:37.767Z,98433.00
2023-09-07T00:03:06.994Z,98436.00
2023-09-07T00:05:34.738Z,98427.00
2023-09-07T00:08:02.430Z,98439.00
2023-09-07T00:10:30.229Z,98440.00
2023-09-07T00:12:58.242Z,98442.00
2023-09-07T00:15:27.315Z,98431.00
2023-09-07T00:17:55.122Z,98439.00
2023-09-07T00:20:25.143Z,98432.00
2023-09-07T00:22:52.826Z,98432.00
2023-09-07T00:25:21.278Z,98432.00
2023-09-07T00:27:48.988Z,98436.00
2023-09-07T00:30:16.724Z,98430.00
2023-09-07T00:32:44.350Z,98427.00
2023-09-07T00:35:12.098Z,98428.00
2023-09-07T00:37:41.101Z,98436.00
2023-09-07T00:40:10.637Z,98428.00
2023-09-07T00:42:38.675Z,98438.00
2023-09-07T00:45:07.358Z,98431.00
2023-09-07T00:47:36.729Z,98436.00
2023-09-07T00:50:05.693Z,98436.00
2023-09-07T00:52:34.073Z,98433.00
2023-09-07T00:55:05.212Z,98426.00
2023-09-07T00:57:33.059Z,98435.00
2023-09-07T01:00:00.740Z,98433.00
2023-09-07T01:02:30.008Z,98430.00
2023-09-07T01:04:57.837Z,98426.00
2023-09-07T01:07:28.419Z,98426.00
2023-09-07T01:09:59.735Z,98423.00
2023-09-07T01:12:28.871Z,98421.00
2023-09-07T01:14:57.152Z,98416.00
2023-09-07T01:17:25.050Z,98420.00
2023-09-07T01:19:54.822Z,98416.00
2023-09-07T01:22:24.609Z,98418.00
2023-09-07T01:24:53.954Z,98412.00
2023-09-07T01:27:21.688Z,98412.00
2023-09-07T01:29:49.500Z,98406.00
2023-09-07T01:32:17.170Z,98406.00
2023-09-07T01:34:45.382Z,98409.00
2023-09-07T01:37:13.063Z,98414.00
2023-09-07T01:39:42.099Z,98408.00
2023-09-07T01:42:09.726Z,98411.00
2023-09-07T01:44:37.587Z,98408.00
2023-09-07T01:47:05.818Z,98411.00
2023-09-07T01:49:33.614Z,98414.00
2023-09-07T01:52:01.366Z,98416.00
2023-09-07T01:54:29.013Z,98417.00
2023-09-07T01:56:58.010Z,98414.00
2023-09-07T01:59:25.693Z,98413.00
2023-09-07T02:01:53.468Z,98409.00
2023-09-07T02:04:21.459Z,98408.00
2023-09-07T02:06:49.128Z,98405.00
2023-09-07T02:09:16.815Z,98407.00
2023-09-07T02:11:44.479Z,98406.00
2023-09-07T02:14:13.527Z,98412.00
2023-09-07T02:16:41.283Z,98408.00
2023-09-07T02:19:09.025Z,98411.00
2023-09-07T02:21:36.703Z,98411.00
2023-09-07T02:24:04.611Z,98414.00
2023-09-07T02:26:32.341Z,98417.00
2023-09-07T02:29:00.131Z,98413.00
2023-09-07T02:31:29.259Z,98414.00
2023-09-07T02:33:57.064Z,98413.00
2023-09-07T02:36:24.881Z,98411.00
2023-09-07T02:38:52.610Z,98419.00
2023-09-07T02:41:20.366Z,98409.00
2023-09-07T02:43:48.088Z,98415.00
2023-09-07T02:46:15.802Z,98417.00
2023-09-07T02:48:44.956Z,98416.00
2023-09-07T02:51:12.683Z,98421.00
2023-09-07T02:53:40.360Z,98418.00
2023-09-07T02:56:08.876Z,98424.00
2023-09-07T02:58:38.767Z,98424.00
2023-09-07T03:01:09.800Z,98422.00
2023-09-07T03:03:37.734Z,98421.00
2023-09-07T03:06:11.790Z,98424.00
2023-09-07T03:08:39.672Z,98428.00
2023-09-07T03:11:07.857Z,98423.00
2023-09-07T03:13:35.539Z,98421.00
2023-09-07T03:16:05.214Z,98414.00
2023-09-07T03:18:33.988Z,98418.00
2023-09-07T03:21:03.796Z,98416.00
2023-09-07T03:23:34.870Z,98417.00
2023-09-07T03:26:02.640Z,98419.00
2023-09-07T03:28:30.891Z,98418.00
2023-09-07T03:30:58.784Z,98420.00
2023-09-07T03:33:26.484Z,98421.00
2023-09-07T03:35:54.187Z,98409.00
2023-09-07T03:38:21.881Z,98409.00
2023-09-07T03:40:50.938Z,98416.00
2023-09-07T03:43:19.842Z,98417.00
2023-09-07T03:45:48.000Z,98423.00
2023-09-07T03:48:15.805Z,98416.00
2023-09-07T03:50:43.473Z,98419.00
2023-09-07T03:53:11.185Z,98426.00
2023-09-07T03:55:44.075Z,98418.00
2023-09-07T03:58:13.900Z,98426.00
2023-09-07T04:00:42.347Z,98420.00
2023-09-07T04:03:10.652Z,98419.00
2023-09-07T04:05:39.230Z,98423.00
2023-09-07T04:08:07.500Z,98420.00
2023-09-07T04:10:35.367Z,98418.00
2023-09-07T04:13:03.996Z,98417.00
2023-09-07T04:15:32.977Z,98418.00
2023-09-07T04:18:00.747Z,98420.00
2023-09-07T04:20:30.430Z,98418.00
2023-09-07T04:22:58.166Z,98422.00
2023-09-07T04:25:26.983Z,98416.00
2023-09-07T04:27:54.623Z,98425.00
2023-09-07T04:30:22.734Z,98422.00
2023-09-07T04:32:51.934Z,98420.00
2023-09-07T04:35:19.711Z,98423.00
2023-09-07T04:37:47.615Z,98422.00
2023-09-07T04:40:16.320Z,98425.00
2023-09-07T04:42:43.969Z,98429.00
2023-09-07T04:45:12.186Z,98428.00
2023-09-07T04:47:39.852Z,98434.00
2023-09-07T04:50:10.329Z,98431.00
2023-09-07T04:52:38.106Z,98438.00
2023-09-07T04:55:06.423Z,98434.00
2023-09-07T04:57:34.072Z,98435.00
2023-09-07T05:00:01.868Z,98441.00
2023-09-07T05:02:29.630Z,98441.00
2023-09-07T05:04:57.405Z,98443.00
2023-09-07T05:07:26.416Z,98445.00
2023-09-07T05:09:54.223Z,98452.00
2023-09-07T05:12:21.934Z,98447.00
2023-09-07T05:14:49.662Z,98455.00
2023-09-07T05:17:17.412Z,98446.00
2023-09-07T05:19:45.227Z,98445.00
2023-09-07T05:22:13.082Z,98451.00
2023-09-07T05:24:42.374Z,98451.00
2023-09-07T05:27:10.102Z,98456.00
2023-09-07T05:29:37.794Z,98459.00
2023-09-07T05:32:06.232Z,98458.00
2023-09-07T05:34:33.990Z,98461.00
2023-09-07T05:37:01.850Z,98460.00
2023-09-07T05:39:29.594Z,98464.00
2023-09-07T05:41:58.650Z,98466.00
2023-09-07T05:44:26.351Z,98460.00
2023-09-07T05:46:55.317Z,98468.00
2023-09-07T05:49:23.189Z,98467.00
2023-09-07T05:51:51.099Z,98471.00
2023-09-07T05:54:18.895Z,98461.00
2023-09-07T05:56:46.608Z,98471.00
2023-09-07T05:59:15.777Z,98467.00
2023-09-07T06:01:44.055Z,98464.00
2023-09-07T06:04:12.042Z,98474.00
2023-09-07T06:06:39.967Z,98472.00
2023-09-07T06:09:07.732Z,98469.00
2023-09-07T06:11:36.270Z,98471.00
2023-09-07T06:14:04.332Z,98468.00
2023-09-07T06:16:33.407Z,98477.00
2023-09-07T06:19:01.184Z,98473.00
2023-09-07T06:21:28.957Z,98479.00
2023-09-07T06:23:57.671Z,98467.00
2023-09-07T06:26:25.701Z,98467.00
2023-09-07T06:28:53.441Z,98465.00
2023-09-07T06:31:21.271Z,98469.00
2023-09-07T06:33:50.468Z,98484.00
2023-09-07T06:36:20.644Z,98472.00
2023-09-07T06:38:54.309Z,98466.00
2023-09-07T06:41:22.050Z,98472.00
2023-09-07T06:43:49.791Z,98470.00
2023-09-07T06:46:17.901Z,98472.00
2023-09-07T06:48:46.208Z,98476.00
2023-09-07T06:51:15.450Z,98476.00
2023-09-07T06:53:56.831Z,98488.00
2023-09-07T06:56:25.558Z,98480.00
2023-09-07T06:58:53.546Z,98473.00
2023-09-07T07:01:21.354Z,98477.00
2023-09-07T07:03:50.429Z,98474.00
2023-09-07T07:06:20.255Z,98478.00
2023-09-07T07:08:48.041Z,98477.00
2023-09-07T07:11:15.795Z,98477.00
2023-09-07T07:13:43.620Z,98483.00
2023-09-07T07:16:11.505Z,98481.00
2023-09-07T07:21:23.628Z,98485.00
2023-09-07T07:23:51.304Z,98485.00
2023-09-07T07:26:19.582Z,98484.00
2023-09-07T07:31:32.741Z,98471.00
2023-09-07T07:34:00.621Z,98475.00
2023-09-07T07:36:31.244Z,98471.00
2023-09-07T07:39:00.284Z,98483.00
2023-09-07T07:41:28.051Z,98473.00
2023-09-07T07:43:55.762Z,98474.00
2023-09-07T07:46:23.583Z,98473.00
2023-09-07T07:48:51.718Z,98474.00
2023-09-07T07:51:19.403Z,98468.00
2023-09-07T07:53:48.512Z,98463.00
2023-09-07T07:56:19.635Z,98464.00
2023-09-07T07:58:47.497Z,98466.00
2023-09-07T08:01:16.337Z,98466.00
2023-09-07T08:03:44.516Z,98467.00
2023-09-07T08:06:13.231Z,98459.00
2023-09-07T08:08:41.866Z,98465.00
2023-09-07T08:11:10.969Z,98470.00
2023-09-07T08:13:38.814Z,98472.00
2023-09-07T08:16:07.575Z,98469.00
2023-09-07T08:18:36.945Z,98473.00
2023-09-07T08:21:05.223Z,98473.00
2023-09-07T08:23:33.053Z,98469.00
2023-09-07T08:26:01.276Z,98471.00
2023-09-07T08:28:30.966Z,98466.00
2023-09-07T08:31:00.470Z,98462.00
2023-09-07T08:33:30.340Z,98467.00
2023-09-07T08:36:01.671Z,98469.00
2023-09-07T08:38:31.243Z,98466.00
2023-09-07T08:41:04.242Z,98470.00
2023-09-07T08:43:35.921Z,98469.00
2023-09-07T08:46:13.097Z,98470.00
2023-09-07T08:48:41.668Z,98465.00
2023-09-07T08:51:12.718Z,98465.00
2023-09-07T08:53:41.730Z,98464.00
2023-09-07T08:56:11.333Z,98463.00
2023-09-07T08:58:41.402Z,98463.00
2023-09-07T09:01:09.828Z,98462.00
2023-09-07T09:03:38.633Z,98459.00
2023-09-07T09:06:06.869Z,98460.00
2023-09-07T09:08:44.450Z,98457.00
2023-09-07T09:11:12.667Z,98466.00
2023-09-07T09:13:42.914Z,98461.00
2023-09-07T09:16:11.618Z,98465.00
2023-09-07T09:18:40.659Z,98464.00
2023-09-07T09:21:08.566Z,98460.00
2023-09-07T09:23:37.443Z,98465.00
2023-09-07T09:26:06.543Z,98457.00
2023-09-07T09:28:35.054Z,98460.00
2023-09-07T09:31:04.882Z,98451.00
2023-09-07T09:33:33.814Z,98450.00
2023-09-07T09:36:02.021Z,98446.00
2023-09-07T09:38:33.311Z,98445.00
2023-09-07T09:41:01.542Z,98451.00
2023-09-07T09:43:29.372Z,98443.00
2023-09-07T09:45:57.313Z,98443.00
2023-09-07T09:48:26.551Z,98440.00
2023-09-07T09:50:54.531Z,98439.00
2023-09-07T09:53:24.086Z,98444.00
2023-09-07T09:55:53.772Z,98438.00
2023-09-07T09:58:21.863Z,98443.00
2023-09-07T10:00:52.639Z,98441.00
2023-09-07T10:03:27.604Z,98441.00
2023-09-07T10:05:56.708Z,98436.00
2023-09-07T10:08:24.857Z,98429.00
2023-09-07T10:10:55.853Z,98435.00
2023-09-07T10:13:32.442Z,98424.00
2023-09-07T10:16:05.738Z,98427.00
2023-09-07T10:18:37.584Z,98427.00
2023-09-07T10:21:08.131Z,98414.00
2023-09-07T10:23:40.684Z,98424.00
2023-09-07T10:26:13.406Z,98427.00
2023-09-07T10:28:41.911Z,98410.00
2023-09-07T10:31:16.019Z,98412.00
2023-09-07T10:33:44.153Z,98414.00
2023-09-07T10:36:24.005Z,98412.00
2023-09-07T10:38:54.227Z,98406.00
2023-09-07T10:41:22.235Z,98409.00
2023-09-07T10:43:51.699Z,98409.00
2023-09-07T10:46:22.085Z,98397.00
2023-09-07T10:48:52.129Z,98400.00
2023-09-07T10:51:21.769Z,98397.00
2023-09-07T10:53:49.824Z,98387.00
2023-09-07T10:56:17.600Z,98388.00
2023-09-07T10:58:45.432Z,98384.00
2023-09-07T11:01:15.829Z,98395.00
2023-09-07T11:03:45.365Z,98397.00
2023-09-07T11:06:17.660Z,98391.00
2023-09-07T11:08:46.777Z,98386.00
2023-09-07T11:11:15.306Z,98387.00
2023-09-07T11:13:43.239Z,98384.00
2023-09-07T11:16:12.125Z,98376.00
2023-09-07T11:18:39.911Z,98377.00
2023-09-07T11:21:08.579Z,98380.00
2023-09-07T11:23:39.530Z,98380.00
2023-09-07T11:26:10.399Z,98376.00
2023-09-07T11:28:39.711Z,98375.00
2023-09-07T11:31:07.605Z,98378.00
2023-09-07T11:33:36.650Z,98379.00
2023-09-07T11:36:05.565Z,98374.00
2023-09-07T11:38:38.761Z,98373.00
2023-09-07T11:41:07.950Z,98376.00
2023-09-07T11:43:35.961Z,98377.00
2023-09-07T11:46:05.873Z,98377.00
2023-09-07T11:48:35.268Z,98379.00
2023-09-07T11:51:03.181Z,98376.00
2023-09-07T11:53:31.294Z,98370.00
2023-09-07T11:56:00.152Z,98377.00
2023-09-07T11:58:30.917Z,98373.00
2023-09-07T12:00:58.985Z,98372.00
2023-09-07T12:03:27.067Z,98368.00
2023-09-07T12:05:55.302Z,98369.00
2023-09-07T12:08:22.969Z,98368.00
2023-09-07T12:10:50.732Z,98371.00
2023-09-07T12:13:18.428Z,98363.00
2023-09-07T12:15:47.610Z,98362.00
2023-09-07T12:18:15.501Z,98354.00
2023-09-07T12:20:44.277Z,98356.00
2023-09-07T12:23:12.161Z,98355.00
2023-09-07T12:25:39.897Z,98348.00
2023-09-07T12:28:07.721Z,98355.00
2023-09-07T12:30:35.750Z,98354.00
2023-09-07T12:33:05.010Z,98349.00
2023-09-07T12:35:32.677Z,98341.00
2023-09-07T12:38:00.825Z,98351.00
2023-09-07T12:40:28.663Z,98351.00
2023-09-07T12:42:56.445Z,98338.00
2023-09-07T12:45:24.378Z,98343.00
2023-09-07T12:47:52.108Z,98334.00
2023-09-07T12:50:21.222Z,98333.00
2023-09-07T12:52:48.907Z,98335.00
2023-09-07T12:55:16.830Z,98341.00
2023-09-07T12:57:44.876Z,98335.00
2023-09-07T13:00:13.843Z,98338.00
2023-09-07T13:02:41.714Z,98335.00
2023-09-07T13:05:10.274Z,98334.00
2023-09-07T13:07:39.486Z,98332.00
2023-09-07T13:10:08.013Z,98332.00
2023-09-07T13:12:35.706Z,98328.00
2023-09-07T13:15:03.666Z,98323.00
2023-09-07T13:17:31.422Z,98322.00
2023-09-07T13:19:59.090Z,98325.00
2023-09-07T13:22:26.860Z,98319.00
2023-09-07T13:24:55.902Z,98317.00
2023-09-07T13:27:23.678Z,98316.00
2023-09-07T13:29:51.420Z,98322.00
2023-09-07T13:32:19.600Z,98322.00
2023-09-07T13:34:47.348Z,98318.00
2023-09-07T13:37:14.991Z,98308.00
2023-09-07T13:39:42.657Z,98305.00
2023-09-07T13:42:12.218Z,98301.00
2023-09-07T13:44:39.906Z,98301.00
2023-09-07T13:47:07.941Z,98313.00
2023-09-07T13:49:35.639Z,98306.00
2023-09-07T13:52:04.189Z,98302.00
2023-09-07T13:54:31.871Z,98300.00
2023-09-07T13:56:59.568Z,98309.00
2023-09-07T13:59:33.768Z,98308.00
2023-09-07T14:02:01.608Z,98306.00
2023-09-07T14:04:29.925Z,98307.00
2023-09-07T14:06:57.651Z,98306.00
2023-09-07T14:09:25.561Z,98305.00
2023-09-07T14:11:53.250Z,98299.00
2023-09-07T14:14:22.042Z,98300.00
2023-09-07T14:16:56.478Z,98292.00
2023-09-07T14:19:26.683Z,98297.00
2023-09-07T14:21:55.540Z,98303.00
2023-09-07T14:24:23.288Z,98298.00
2023-09-07T14:26:51.146Z,98297.00
2023-09-07T14:29:18.954Z,98296.00
2023-09-07T14:31:46.976Z,98291.00
2023-09-07T14:34:16.206Z,98284.00
2023-09-07T14:36:44.023Z,98291.00
2023-09-07T14:39:11.793Z,98290.00
2023-09-07T14:41:41.138Z,98285.00
2023-09-07T14:44:09.284Z,98289.00
2023-09-07T14:46:37.027Z,98292.00
2023-09-07T14:49:05.025Z,98288.00
2023-09-07T14:51:34.055Z,98291.00
2023-09-07T14:54:02.016Z,98289.00
2023-09-07T14:56:30.665Z,98287.00
2023-09-07T14:58:58.658Z,98287.00
2023-09-07T15:01:26.379Z,98281.00
2023-09-07T15:03:54.281Z,98281.00
2023-09-07T15:06:22.038Z,98280.00
2023-09-07T15:08:51.593Z,98282.00
2023-09-07T15:11:19.418Z,98282.00
2023-09-07T15:13:47.881Z,98279.00
2023-09-07T15:16:15.752Z,98274.00
2023-09-07T15:18:45.232Z,98278.00
2023-09-07T15:21:13.387Z,98270.00
2023-09-07T15:23:41.477Z,98273.00
2023-09-07T15:26:10.728Z,98271.00
2023-09-07T15:28:40.232Z,98269.00
2023-09-07T15:31:08.243Z,98274.00
2023-09-07T15:33:36.522Z,98267.00
2023-09-07T15:36:04.456Z,98258.00
2023-09-07T15:38:32.517Z,98263.00
2023-09-07T15:41:05.440Z,98256.00
2023-09-07T15:43:34.715Z,98261.00
2023-09-07T15:46:02.533Z,98261.00
2023-09-07T15:48:30.726Z,98259.00
2023-09-07T15:50:59.271Z,98258.00
2023-09-07T15:53:27.022Z,98267.00
2023-09-07T15:55:54.826Z,98270.00
2023-09-07T15:58:22.801Z,98265.00
2023-09-07T16:00:51.807Z,98266.00
2023-09-07T16:03:19.652Z,98265.00
2023-09-07T16:05:48.823Z,98267.00
2023-09-07T16:08:16.647Z,98261.00
2023-09-07T16:10:44.357Z,98260.00
2023-09-07T16:13:12.273Z,98263.00
2023-09-07T16:15:39.946Z,98257.00
2023-09-07T16:18:09.080Z,98259.00
2023-09-07T16:20:37.033Z,98257.00
2023-09-07T16:23:05.185Z,98260.00
2023-09-07T16:25:32.946Z,98260.00
2023-09-07T16:28:00.814Z,98263.00
2023-09-07T16:30:28.490Z,98267.00
2023-09-07T16:32:56.454Z,98260.00
2023-09-07T16:35:25.615Z,98262.00
2023-09-07T16:37:53.316Z,98265.00
2023-09-07T16:40:21.611Z,98264.00
2023-09-07T16:42:49.363Z,98267.00
2023-09-07T16:45:17.034Z,98261.00
2023-09-07T16:47:44.685Z,98266.00
2023-09-07T16:50:12.457Z,98265.00
2023-09-07T16:52:41.507Z,98270.00
2023-09-07T16:55:09.989Z,98282.00
2023-09-07T16:57:37.846Z,98280.00
2023-09-07T17:00:06.961Z,98288.00
2023-09-07T17:02:35.230Z,98275.00
2023-09-07T17:05:03.938Z,98282.00
2023-09-07T17:07:31.641Z,98279.00
2023-09-07T17:10:00.660Z,98286.00
2023-09-07T17:12:28.318Z,98286.00
2023-09-07T17:14:56.079Z,98290.00
2023-09-07T17:17:23.780Z,98287.00
2023-09-07T17:19:51.484Z,98283.00
2023-09-07T17:22:19.193Z,98280.00
2023-09-07T17:24:46.849Z,98282.00
2023-09-07T17:27:15.830Z,98281.00
2023-09-07T17:29:43.547Z,98288.00
2023-09-07T17:32:11.292Z,98281.00
2023-09-07T17:34:39.574Z,98283.00
2023-09-07T17:37:07.611Z,98288.00
2023-09-07T17:39:36.465Z,98287.00
2023-09-07T17:42:04.476Z,98290.00
2023-09-07T17:44:33.736Z,98284.00
2023-09-07T17:47:02.163Z,98288.00
2023-09-07T17:49:29.880Z,98285.00
2023-09-07T17:51:57.690Z,98285.00
2023-09-07T17:54:25.531Z,98282.00
2023-09-07T17:56:53.275Z,98289.00
2023-09-07T17:59:20.935Z,98284.00
2023-09-07T18:01:50.068Z,98290.00
2023-09-07T18:04:17.979Z,98295.00
2023-09-07T18:06:45.777Z,98302.00
2023-09-07T18:09:13.503Z,98304.00
2023-09-07T18:11:44.973Z,98302.00
2023-09-07T18:14:13.449Z,98306.00
2023-09-07T18:16:42.490Z,98312.00
2023-09-07T18:19:12.364Z,98309.00
2023-09-07T18:21:40.449Z,98322.00
2023-09-07T18:24:08.364Z,98325.00
2023-09-07T18:26:37.047Z,98322.00
2023-09-07T18:29:05.572Z,98313.00
2023-09-07T18:31:33.337Z,98317.00
2023-09-07T18:34:02.821Z,98324.00
2023-09-07T18:36:34.289Z,98326.00
2023-09-07T18:39:01.984Z,98329.00
2023-09-07T18:41:29.626Z,98328.00
2023-09-07T18:43:57.280Z,98330.00
2023-09-07T18:46:25.225Z,98331.00
2023-09-07T18:48:52.965Z,98331.00
2023-09-07T18:51:20.604Z,98336.00
2023-09-07T18:53:49.715Z,98332.00
2023-09-07T18:56:17.380Z,98341.00
2023-09-07T18:58:45.290Z,98334.00
2023-09-07T19:01:15.010Z,98334.00
2023-09-07T19:03:47.610Z,98333.00
2023-09-07T19:06:15.754Z,98337.00
2023-09-07T19:08:43.690Z,98334.00
2023-09-07T19:11:13.616Z,98335.00
2023-09-07T19:13:41.423Z,98331.00
2023-09-07T19:16:14.128Z,98335.00
2023-09-07T19:18:41.966Z,98331.00
2023-09-07T19:21:23.377Z,98329.00
2023-09-07T19:23:52.800Z,98337.00
2023-09-07T19:26:33.158Z,98335.00
2023-09-07T19:29:01.864Z,98333.00
2023-09-07T19:31:29.654Z,98330.00
2023-09-07T19:33:59.196Z,98333.00
2023-09-07T19:36:27.837Z,98327.00
2023-09-07T19:38:57.877Z,98328.00
2023-09-07T19:41:25.731Z,98333.00
2023-09-07T19:43:54.804Z,98332.00
2023-09-07T19:46:22.607Z,98329.00
2023-09-07T19:48:51.050Z,98330.00
2023-09-07T19:51:20.757Z,98335.00
2023-09-07T19:53:49.753Z,98326.00
2023-09-07T19:56:19.778Z,98333.00
2023-09-07T19:58:47.616Z,98339.00
2023-09-07T20:01:18.134Z,98346.00
2023-09-07T20:03:47.546Z,98336.00
2023-09-07T20:06:16.881Z,98335.00
2023-09-07T20:08:44.648Z,98335.00
2023-09-07T20:11:13.727Z,98349.00
2023-09-07T20:13:42.805Z,98327.00
2023-09-07T20:16:12.808Z,98335.00
2023-09-07T20:18:42.181Z,98346.00
2023-09-07T20:21:11.876Z,98337.00
2023-09-07T20:23:41.120Z,98350.00
2023-09-07T20:26:09.159Z,98341.00
2023-09-07T20:28:37.091Z,98339.00
2023-09-07T20:31:06.997Z,98348.00
2023-09-07T20:33:35.031Z,98349.00
2023-09-07T20:36:04.546Z,98340.00
2023-09-07T20:38:32.982Z,98345.00
2023-09-07T20:41:02.575Z,98351.00
2023-09-07T20:43:30.303Z,98354.00
2023-09-07T20:45:58.902Z,98347.00
2023-09-07T20:48:26.761Z,98349.00
2023-09-07T20:50:54.698Z,98345.00
2023-09-07T20:53:24.084Z,98342.00
2023-09-07T20:55:51.790Z,98345.00
2023-09-07T20:58:19.518Z,98340.00
2023-09-07T21:00:47.262Z,98345.00
2023-09-07T21:03:15.092Z,98343.00
2023-09-07T21:05:42.896Z,98350.00
2023-09-07T21:08:10.650Z,98345.00
2023-09-07T21:10:39.819Z,98345.00
2023-09-07T21:13:07.517Z,98340.00
2023-09-07T21:15:35.216Z,98342.00
2023-09-07T21:18:03.034Z,98342.00
2023-09-07T21:20:31.711Z,98339.00
2023-09-07T21:22:59.915Z,98347.00
2023-09-07T21:25:27.822Z,98344.00
2023-09-07T21:27:56.939Z,98347.00
2023-09-07T21:30:24.798Z,98347.00
2023-09-07T21:32:52.693Z,98336.00
2023-09-07T21:35:20.759Z,98341.00
2023-09-07T21:37:48.541Z,98338.00
2023-09-07T21:40:16.497Z,98338.00
2023-09-07T21:42:44.444Z,98337.00
2023-09-07T21:45:13.602Z,98345.00
2023-09-07T21:47:41.407Z,98345.00
2023-09-07T21:50:09.828Z,98344.00
2023-09-07T21:52:37.754Z,98352.00
2023-09-07T21:55:06.220Z,98358.00
2023-09-07T21:57:33.993Z,98347.00
2023-09-07T22:00:05.605Z,98352.00
2023-09-07T22:02:36.007Z,98348.00
2023-09-07T22:05:04.071Z,98348.00
2023-09-07T22:07:31.839Z,98356.00
2023-09-07T22:09:59.555Z,98348.00
2023-09-07T22:12:27.291Z,98347.00
2023-09-07T22:14:54.996Z,98347.00
2023-09-07T22:17:22.809Z,98343.00
2023-09-07T22:19:52.394Z,98341.00
2023-09-07T22:22:20.284Z,98344.00
2023-09-07T22:24:48.020Z,98346.00
2023-09-07T22:27:15.718Z,98342.00
2023-09-07T22:29:43.459Z,98345.00
2023-09-07T22:32:11.220Z,98340.00
2023-09-07T22:34:38.916Z,98348.00
2023-09-07T22:37:08.176Z,98352.00
2023-09-07T22:39:35.888Z,98344.00
2023-09-07T22:42:03.667Z,98350.00
2023-09-07T22:44:31.416Z,98341.00
2023-09-07T22:46:59.510Z,98342.00
2023-09-07T22:49:27.278Z,98342.00
2023-09-07T22:51:55.018Z,98337.00
2023-09-07T22:54:24.125Z,98333.00
2023-09-07T22:56:51.916Z,98332.00
2023-09-07T22:59:19.696Z,98337.00
2023-09-07T23:01:47.445Z,98333.00
2023-09-07T23:04:15.433Z,98339.00
2023-09-07T23:06:43.234Z,98346.00
2023-09-07T23:09:12.331Z,98335.00
2023-09-07T23:11:42.784Z,98334.00
2023-09-07T23:14:11.038Z,98337.00
2023-09-07T23:16:38.886Z,98339.00
2023-09-07T23:19:06.917Z,98335.00
2023-09-07T23:21:34.837Z,98334.00
2023-09-07T23:24:02.777Z,98335.00
2023-09-07T23:26:30.576Z,98334.00
2023-09-07T23:28:59.675Z,98338.00
2023-09-07T23:31:27.482Z,98334.00
2023-09-07T23:33:55.223Z,98340.00
2023-09-07T23:36:25.393Z,98336.00
2023-09-07T23:38:53.180Z,98335.00
2023-09-07T23:41:21.079Z,98333.00
2023-09-07T23:43:49.063Z,98333.00
2023-09-07T23:46:18.408Z,98335.00
2023-09-07T23:48:46.129Z,98338.00
2023-09-07T23:51:13.792Z,98334.00
2023-09-07T23:53:41.588Z,98331.00
2023-09-07T23:56:09.403Z,98334.00
2023-09-07T23:58:37.342Z,98335.00
